createdAt,value
2019-06-26T00:00:01.686Z,92.90
2019-06-26T00:02:30.233Z,93.20
2019-06-26T00:04:58.809Z,92.60
2019-06-26T00:07:27.433Z,93.30
2019-06-26T00:09:56.083Z,92.90
2019-06-26T00:12:24.727Z,92.90
2019-06-26T00:14:53.344Z,93.20
2019-06-26T00:17:21.913Z,93.00
2019-06-26T00:19:50.401Z,93.20
2019-06-26T00:22:18.988Z,93.10
2019-06-26T00:24:47.572Z,92.70
2019-06-26T00:27:16.145Z,92.80
2019-06-26T00:29:44.644Z,93.40
2019-06-26T00:32:13.296Z,93.50
2019-06-26T00:34:41.933Z,93.10
2019-06-26T00:37:10.491Z,92.50
2019-06-26T00:39:39.053Z,92.20
2019-06-26T00:42:07.709Z,92.20
2019-06-26T00:44:36.257Z,92.20
2019-06-26T00:47:04.977Z,92.30
2019-06-26T00:49:33.541Z,92.20
2019-06-26T00:52:02.256Z,92.80
2019-06-26T00:54:30.884Z,92.60
2019-06-26T00:56:59.376Z,92.90
2019-06-26T00:59:27.981Z,93.20
2019-06-26T01:01:56.611Z,93.50
2019-06-26T01:04:32.644Z,93.40
2019-06-26T01:07:01.337Z,93.00
2019-06-26T01:09:29.947Z,92.60
2019-06-26T01:11:58.529Z,92.50
2019-06-26T01:14:27.101Z,92.70
2019-06-26T01:16:55.567Z,92.60
2019-06-26T01:19:24.122Z,92.70
2019-06-26T01:21:52.686Z,92.80
2019-06-26T01:24:21.254Z,93.30
2019-06-26T01:26:49.976Z,93.80
2019-06-26T01:29:18.542Z,93.40
2019-06-26T01:31:47.096Z,93.20
2019-06-26T01:34:15.719Z,93.50
2019-06-26T01:36:44.284Z,93.40
2019-06-26T01:39:12.788Z,93.10
2019-06-26T01:41:41.410Z,92.90
2019-06-26T01:44:14.718Z,92.80
2019-06-26T01:46:40.416Z,92.60
2019-06-26T01:49:08.945Z,93.40
2019-06-26T01:51:37.529Z,93.20
2019-06-26T01:54:06.169Z,93.30
2019-06-26T01:56:34.799Z,92.90
2019-06-26T01:59:03.336Z,93.00
2019-06-26T02:01:32.055Z,93.10
2019-06-26T02:04:00.644Z,92.30
2019-06-26T02:06:29.284Z,92.30
2019-06-26T02:08:57.830Z,92.20
2019-06-26T02:11:26.347Z,92.90
2019-06-26T02:13:55.123Z,93.30
2019-06-26T02:16:23.720Z,92.70
2019-06-26T02:18:53.909Z,92.30
2019-06-26T02:21:22.461Z,92.10
2019-06-26T02:23:51.019Z,92.40
2019-06-26T02:26:19.719Z,91.90
2019-06-26T02:28:48.304Z,92.30
2019-06-26T02:31:16.995Z,92.40
2019-06-26T02:33:45.648Z,92.90
2019-06-26T02:36:14.241Z,93.20
2019-06-26T02:38:42.871Z,92.90
2019-06-26T02:41:11.774Z,92.60
2019-06-26T02:43:40.411Z,92.90
2019-06-26T02:46:09.052Z,92.10
2019-06-26T02:48:37.691Z,92.10
2019-06-26T02:51:06.267Z,92.30
2019-06-26T02:53:34.898Z,93.00
2019-06-26T02:56:03.612Z,93.20
2019-06-26T02:58:32.250Z,92.90
2019-06-26T03:01:00.888Z,92.90
2019-06-26T03:03:29.506Z,93.10
2019-06-26T03:05:58.232Z,93.20
2019-06-26T03:08:26.811Z,93.80
2019-06-26T03:10:55.514Z,93.10
2019-06-26T03:13:24.231Z,93.50
2019-06-26T03:15:52.972Z,93.70
2019-06-26T03:18:21.550Z,93.60
2019-06-26T03:20:57.813Z,93.50
2019-06-26T03:23:26.521Z,93.40
2019-06-26T03:25:55.164Z,93.70
2019-06-26T03:28:23.823Z,94.20
2019-06-26T03:30:52.443Z,93.80
2019-06-26T03:33:20.989Z,93.80
2019-06-26T03:35:49.564Z,93.80
2019-06-26T03:38:18.178Z,93.60
2019-06-26T03:40:46.816Z,93.40
2019-06-26T03:43:15.420Z,93.60
2019-06-26T03:45:43.911Z,93.80
2019-06-26T03:48:12.387Z,93.80
2019-06-26T03:50:41.142Z,93.50
2019-06-26T03:53:09.800Z,93.40
2019-06-26T03:55:38.349Z,93.40
2019-06-26T03:58:06.937Z,93.70
2019-06-26T04:00:44.864Z,93.50
2019-06-26T04:03:13.430Z,93.90
2019-06-26T04:05:42.066Z,93.60
2019-06-26T04:08:10.765Z,93.10
2019-06-26T04:10:42.902Z,93.40
2019-06-26T04:13:09.636Z,93.20
2019-06-26T04:15:42.519Z,93.70
2019-06-26T04:18:08.512Z,93.80
2019-06-26T04:20:37.284Z,93.90
2019-06-26T04:23:05.984Z,93.60
2019-06-26T04:25:37.853Z,93.40
2019-06-26T04:28:06.446Z,93.80
2019-06-26T04:30:35.335Z,93.90
2019-06-26T04:33:04.052Z,94.30
2019-06-26T04:35:32.629Z,94.10
2019-06-26T04:38:01.274Z,93.40
2019-06-26T04:40:29.814Z,93.30
2019-06-26T04:42:58.380Z,93.90
2019-06-26T04:45:27.014Z,94.30
2019-06-26T04:47:55.692Z,94.00
2019-06-26T04:50:24.497Z,93.90
2019-06-26T04:52:53.079Z,93.80
2019-06-26T04:55:21.592Z,93.50
2019-06-26T04:57:50.186Z,93.00
2019-06-26T05:00:21.841Z,93.00
2019-06-26T05:02:50.192Z,93.40
2019-06-26T05:05:19.014Z,93.80
2019-06-26T05:07:47.569Z,93.30
2019-06-26T05:10:16.493Z,93.60
2019-06-26T05:12:45.044Z,93.50
2019-06-26T05:15:13.909Z,93.50
2019-06-26T05:17:42.496Z,93.30
2019-06-26T05:20:11.619Z,93.30
2019-06-26T05:22:40.273Z,92.90
2019-06-26T05:25:09.527Z,92.90
2019-06-26T05:27:38.108Z,93.30
2019-06-26T05:30:08.724Z,93.10
2019-06-26T05:32:37.418Z,93.10
2019-06-26T05:35:07.422Z,92.80
2019-06-26T05:37:36.075Z,93.20
2019-06-26T05:40:10.172Z,93.70
2019-06-26T05:42:38.873Z,92.80
2019-06-26T05:45:08.403Z,93.40
2019-06-26T05:47:36.975Z,93.50
2019-06-26T05:50:07.557Z,93.70
2019-06-26T05:52:36.280Z,93.20
2019-06-26T05:55:05.792Z,93.40
2019-06-26T05:57:34.602Z,93.40
2019-06-26T06:00:07.639Z,93.30
2019-06-26T06:02:36.307Z,92.60
2019-06-26T06:05:07.424Z,93.10
2019-06-26T06:07:36.116Z,93.40
2019-06-26T06:10:05.828Z,92.90
2019-06-26T06:12:34.478Z,92.40
2019-06-26T06:15:04.408Z,91.90
2019-06-26T06:17:32.961Z,91.80
2019-06-26T06:20:01.747Z,92.40
2019-06-26T06:22:30.790Z,92.30
2019-06-26T06:24:59.495Z,91.90
2019-06-26T06:27:28.135Z,92.50
2019-06-26T06:29:56.989Z,92.30
2019-06-26T06:32:25.676Z,92.50
2019-06-26T06:34:54.392Z,92.50
2019-06-26T06:37:22.985Z,92.80
2019-06-26T06:39:51.609Z,93.00
2019-06-26T06:42:20.264Z,93.40
2019-06-26T06:44:48.860Z,93.00
2019-06-26T06:47:17.568Z,93.20
2019-06-26T06:49:46.148Z,92.60
2019-06-26T06:52:16.795Z,92.50
2019-06-26T06:54:45.136Z,92.30
2019-06-26T06:57:13.726Z,91.70
2019-06-26T06:59:42.260Z,91.80
2019-06-26T07:02:10.950Z,91.50
2019-06-26T07:04:39.518Z,91.20
2019-06-26T07:07:08.227Z,91.50
2019-06-26T07:09:36.953Z,91.90
2019-06-26T07:12:05.691Z,92.20
2019-06-26T07:14:34.335Z,91.90
2019-06-26T07:17:16.085Z,92.10
2019-06-26T07:19:33.373Z,92.20
2019-06-26T07:22:02.010Z,92.20
2019-06-26T07:24:30.699Z,92.50
2019-06-26T07:26:59.267Z,93.00
2019-06-26T07:29:27.891Z,93.00
2019-06-26T07:31:56.512Z,92.30
2019-06-26T07:34:25.025Z,92.30
2019-06-26T07:36:53.642Z,92.00
2019-06-26T07:39:22.215Z,92.60
2019-06-26T07:41:50.792Z,93.10
2019-06-26T07:44:19.379Z,93.20
2019-06-26T07:46:47.955Z,93.40
2019-06-26T07:49:16.603Z,93.70
2019-06-26T07:51:45.369Z,93.20
2019-06-26T07:54:13.974Z,92.80
2019-06-26T07:56:42.638Z,93.10
2019-06-26T07:59:11.148Z,93.00
2019-06-26T08:01:39.717Z,93.40
2019-06-26T08:04:08.404Z,93.30
2019-06-26T08:06:37.115Z,93.20
2019-06-26T08:09:07.392Z,92.50
2019-06-26T08:11:36.011Z,92.50
2019-06-26T08:14:04.805Z,92.30
2019-06-26T08:16:34.476Z,93.30
2019-06-26T08:19:03.217Z,92.80
2019-06-26T08:21:31.833Z,92.70
2019-06-26T08:24:00.583Z,93.30
2019-06-26T08:26:29.304Z,93.60
2019-06-26T08:28:57.923Z,92.80
2019-06-26T08:31:26.555Z,93.00
2019-06-26T08:33:55.166Z,92.80
2019-06-26T08:36:23.965Z,92.50
2019-06-26T08:38:52.635Z,92.40
2019-06-26T08:41:21.452Z,92.40
2019-06-26T08:43:49.995Z,92.80
2019-06-26T08:46:18.571Z,92.70
2019-06-26T08:48:47.196Z,92.50
2019-06-26T08:51:15.788Z,92.30
2019-06-26T08:53:44.437Z,92.70
2019-06-26T08:56:13.933Z,92.60
2019-06-26T08:58:42.746Z,92.70
2019-06-26T09:01:11.289Z,93.10
2019-06-26T09:03:42.132Z,92.50
2019-06-26T09:06:10.215Z,92.20
2019-06-26T09:08:38.887Z,92.60
2019-06-26T09:11:07.595Z,91.90
2019-06-26T09:13:36.256Z,91.80
2019-06-26T09:16:04.973Z,91.60
2019-06-26T09:18:35.870Z,91.90
2019-06-26T09:21:03.978Z,91.90
2019-06-26T09:23:32.569Z,92.00
2019-06-26T09:26:01.232Z,92.20
2019-06-26T09:28:29.975Z,91.80
2019-06-26T09:30:59.315Z,91.30
2019-06-26T09:33:31.226Z,91.00
2019-06-26T09:35:58.199Z,90.40
2019-06-26T09:38:26.731Z,90.20
2019-06-26T09:40:55.466Z,90.40
2019-06-26T09:43:24.079Z,90.70
2019-06-26T09:45:52.668Z,90.50
2019-06-26T09:48:21.309Z,91.30
2019-06-26T09:50:49.964Z,91.70
2019-06-26T09:53:18.627Z,90.90
2019-06-26T09:55:47.219Z,91.20
2019-06-26T09:58:15.831Z,91.20
2019-06-26T10:00:45.278Z,91.40
2019-06-26T10:03:13.829Z,91.70
2019-06-26T10:05:42.697Z,91.50
2019-06-26T10:08:11.423Z,91.30
2019-06-26T10:10:40.049Z,91.60
2019-06-26T10:13:08.724Z,90.80
2019-06-26T10:15:37.462Z,90.70
2019-06-26T10:18:06.168Z,90.30
2019-06-26T10:20:34.838Z,90.70
2019-06-26T10:23:03.392Z,90.50
2019-06-26T10:25:32.211Z,90.20
2019-06-26T10:28:00.927Z,90.50
2019-06-26T10:30:29.723Z,90.30
2019-06-26T10:32:58.355Z,89.80
2019-06-26T10:35:26.918Z,90.00
2019-06-26T10:37:55.532Z,90.00
2019-06-26T10:40:24.189Z,89.40
2019-06-26T10:42:52.899Z,89.00
2019-06-26T10:45:21.783Z,88.40
2019-06-26T10:47:50.370Z,87.80
2019-06-26T10:50:19.256Z,85.80
2019-06-26T10:52:47.805Z,87.10
2019-06-26T10:55:18.172Z,86.20
2019-06-26T10:57:47.071Z,87.30
2019-06-26T11:00:16.245Z,88.40
2019-06-26T11:02:44.950Z,88.20
2019-06-26T11:05:13.790Z,88.60
2019-06-26T11:07:42.411Z,87.90
2019-06-26T11:10:11.343Z,87.70
2019-06-26T11:12:39.953Z,87.30
2019-06-26T11:15:09.067Z,86.60
2019-06-26T11:17:37.677Z,86.80
2019-06-26T11:20:08.649Z,86.50
2019-06-26T11:22:37.362Z,86.20
2019-06-26T11:25:07.244Z,86.50
2019-06-26T11:27:35.891Z,86.70
2019-06-26T11:30:10.500Z,88.60
2019-06-26T11:32:39.181Z,88.60
2019-06-26T11:35:09.511Z,88.90
2019-06-26T11:37:38.203Z,87.90
2019-06-26T11:40:08.526Z,87.00
2019-06-26T11:42:37.317Z,85.60
2019-06-26T11:45:10.380Z,85.70
2019-06-26T11:47:39.090Z,86.00
2019-06-26T11:50:09.174Z,87.20
2019-06-26T11:52:38.338Z,86.60
2019-06-26T11:55:09.230Z,86.70
2019-06-26T11:57:38.265Z,86.70
2019-06-26T12:00:26.492Z,86.20
2019-06-26T12:02:55.125Z,85.50
2019-06-26T12:05:23.878Z,86.00
2019-06-26T12:07:52.582Z,86.00
2019-06-26T12:10:21.699Z,86.30
2019-06-26T12:12:50.354Z,87.80
2019-06-26T12:15:21.291Z,86.20
2019-06-26T12:17:49.909Z,84.30
2019-06-26T12:20:19.939Z,83.80
2019-06-26T12:22:48.820Z,84.30
2019-06-26T12:25:17.542Z,85.20
2019-06-26T12:27:46.286Z,86.00
2019-06-26T12:30:15.598Z,86.40
2019-06-26T12:33:01.486Z,86.20
2019-06-26T12:35:14.736Z,85.00
2019-06-26T12:37:43.285Z,83.00
2019-06-26T12:40:12.407Z,83.10
2019-06-26T12:42:41.126Z,84.10
2019-06-26T12:45:10.431Z,83.00
2019-06-26T12:47:39.153Z,83.30
2019-06-26T12:50:08.757Z,83.30
2019-06-26T12:52:37.382Z,83.70
2019-06-26T12:55:06.632Z,83.10
2019-06-26T12:57:35.282Z,83.50
2019-06-26T13:00:12.014Z,82.90
2019-06-26T13:02:41.004Z,81.60
2019-06-26T13:05:10.300Z,83.40
2019-06-26T13:07:38.966Z,82.40
2019-06-26T13:10:09.048Z,81.90
2019-06-26T13:12:38.008Z,83.90
2019-06-26T13:15:08.025Z,84.60
2019-06-26T13:17:36.740Z,84.50
2019-06-26T13:20:09.641Z,84.40
2019-06-26T13:22:37.354Z,84.50
2019-06-26T13:25:08.051Z,85.90
2019-06-26T13:27:36.662Z,86.50
2019-06-26T13:30:07.316Z,84.80
2019-06-26T13:32:35.921Z,84.80
2019-06-26T13:35:05.860Z,83.40
2019-06-26T13:37:34.513Z,84.40
2019-06-26T13:40:03.800Z,84.80
2019-06-26T13:42:32.364Z,84.80
2019-06-26T13:45:00.944Z,83.80
2019-06-26T13:47:29.627Z,83.10
2019-06-26T13:49:58.267Z,83.40
2019-06-26T13:52:26.883Z,83.50
2019-06-26T13:54:57.360Z,82.80
2019-06-26T13:57:25.723Z,82.80
2019-06-26T13:59:54.404Z,81.50
2019-06-26T14:02:22.908Z,82.60
2019-06-26T14:04:51.657Z,82.30
2019-06-26T14:07:20.284Z,83.50
2019-06-26T14:09:48.858Z,83.40
2019-06-26T14:12:19.229Z,82.60
2019-06-26T14:14:57.488Z,83.20
2019-06-26T14:17:18.138Z,82.50
2019-06-26T14:19:46.814Z,81.60
2019-06-26T14:22:15.471Z,81.70
2019-06-26T14:24:44.145Z,82.50
2019-06-26T14:27:12.699Z,80.40
2019-06-26T14:29:41.269Z,80.50
2019-06-26T14:32:09.819Z,81.00
2019-06-26T14:34:38.369Z,80.20
2019-06-26T14:37:06.959Z,80.50
2019-06-26T14:39:35.518Z,80.70
2019-06-26T14:42:04.301Z,80.20
2019-06-26T14:44:32.915Z,81.40
2019-06-26T14:47:01.498Z,80.70
2019-06-26T14:49:30.072Z,81.50
2019-06-26T14:51:58.664Z,81.00
2019-06-26T14:54:27.250Z,79.40
2019-06-26T14:56:55.801Z,79.80
2019-06-26T14:59:24.418Z,78.80
2019-06-26T15:01:53.019Z,78.30
2019-06-26T15:04:21.509Z,78.10
2019-06-26T15:06:50.189Z,79.00
2019-06-26T15:09:18.723Z,79.30
2019-06-26T15:11:47.393Z,78.80
2019-06-26T15:14:15.966Z,79.80
2019-06-26T15:16:44.596Z,79.50
2019-06-26T15:19:13.172Z,79.50
2019-06-26T15:21:48.649Z,80.50
2019-06-26T15:24:12.069Z,79.70
2019-06-26T15:26:40.729Z,79.20
2019-06-26T15:29:09.315Z,78.90
2019-06-26T15:31:37.861Z,78.30
2019-06-26T15:34:06.387Z,79.30
2019-06-26T15:36:35.044Z,80.90
2019-06-26T15:39:05.658Z,80.90
2019-06-26T15:41:34.300Z,80.80
2019-06-26T15:44:03.350Z,81.10
2019-06-26T15:46:31.955Z,83.00
2019-06-26T15:49:00.531Z,83.80
2019-06-26T15:51:29.073Z,83.40
2019-06-26T15:53:59.986Z,85.00
2019-06-26T15:56:27.858Z,83.80
2019-06-26T15:58:56.350Z,82.80
2019-06-26T16:01:25.062Z,82.90
2019-06-26T16:03:53.683Z,84.10
2019-06-26T16:06:22.432Z,82.10
2019-06-26T16:08:50.981Z,82.30
2019-06-26T16:11:19.564Z,81.70
2019-06-26T16:13:48.153Z,82.00
2019-06-26T16:16:16.954Z,82.70
2019-06-26T16:18:47.186Z,83.00
2019-06-26T16:21:15.880Z,84.10
2019-06-26T16:23:44.517Z,85.10
2019-06-26T16:26:13.299Z,84.70
2019-06-26T16:28:41.908Z,84.60
2019-06-26T16:31:10.474Z,85.80
2019-06-26T16:33:39.077Z,85.80
2019-06-26T16:36:07.738Z,85.80
2019-06-26T16:38:36.267Z,85.60
2019-06-26T16:41:04.896Z,85.30
2019-06-26T16:43:33.518Z,85.00
2019-06-26T16:46:02.298Z,85.10
2019-06-26T16:48:31.046Z,84.90
2019-06-26T16:50:59.631Z,84.70
2019-06-26T16:53:28.180Z,83.20
2019-06-26T16:55:56.754Z,84.80
2019-06-26T16:58:25.291Z,87.50
2019-06-26T17:00:53.849Z,86.00
2019-06-26T17:03:22.425Z,87.50
2019-06-26T17:05:51.040Z,87.10
2019-06-26T17:08:19.587Z,87.20
2019-06-26T17:10:48.339Z,85.40
2019-06-26T17:13:17.005Z,87.50
2019-06-26T17:15:45.635Z,87.30
2019-06-26T17:18:14.250Z,87.70
2019-06-26T17:20:42.872Z,87.90
2019-06-26T17:23:11.385Z,87.70
2019-06-26T17:25:39.945Z,86.90
2019-06-26T17:28:08.566Z,87.10
2019-06-26T17:30:44.602Z,87.40
2019-06-26T17:33:13.176Z,85.60
2019-06-26T17:35:42.021Z,85.90
2019-06-26T17:38:10.740Z,86.20
2019-06-26T17:40:39.299Z,86.90
2019-06-26T17:43:12.311Z,86.30
2019-06-26T17:45:38.321Z,86.70
2019-06-26T17:48:07.043Z,85.70
2019-06-26T17:50:35.671Z,85.00
2019-06-26T17:53:17.393Z,84.70
2019-06-26T17:55:34.464Z,84.20
2019-06-26T17:58:03.019Z,84.30
2019-06-26T18:00:35.896Z,86.20
2019-06-26T18:03:04.879Z,86.80
2019-06-26T18:05:33.498Z,86.80
2019-06-26T18:08:02.179Z,86.60
2019-06-26T18:10:30.783Z,86.40
2019-06-26T18:12:59.356Z,85.50
2019-06-26T18:15:27.985Z,86.10
2019-06-26T18:17:56.855Z,85.80
2019-06-26T18:20:25.430Z,84.80
2019-06-26T18:23:06.528Z,84.80
2019-06-26T18:25:24.197Z,84.90
2019-06-26T18:27:52.848Z,85.40
2019-06-26T18:30:22.735Z,85.20
2019-06-26T18:32:51.787Z,85.60
2019-06-26T18:35:20.707Z,86.20
2019-06-26T18:37:49.313Z,87.40
2019-06-26T18:40:23.679Z,86.90
2019-06-26T18:42:52.327Z,87.20
2019-06-26T18:45:21.010Z,87.50
2019-06-26T18:47:49.650Z,87.90
2019-06-26T18:50:18.281Z,86.50
2019-06-26T18:52:46.999Z,86.70
2019-06-26T18:55:15.706Z,86.80
2019-06-26T18:57:44.245Z,87.20
2019-06-26T19:00:13.467Z,86.20
2019-06-26T19:02:42.055Z,85.40
2019-06-26T19:05:11.072Z,86.60
2019-06-26T19:07:39.868Z,88.10
2019-06-26T19:10:29.297Z,87.70
2019-06-26T19:12:57.884Z,88.10
2019-06-26T19:15:26.384Z,87.90
2019-06-26T19:17:55.029Z,87.30
2019-06-26T19:20:23.736Z,88.50
2019-06-26T19:22:52.322Z,88.70
2019-06-26T19:25:20.904Z,87.80
2019-06-26T19:27:49.492Z,87.40
2019-06-26T19:30:18.322Z,86.10
2019-06-26T19:32:46.920Z,86.20
2019-06-26T19:35:19.673Z,85.90
2019-06-26T19:37:47.596Z,84.60
2019-06-26T19:40:17.191Z,85.80
2019-06-26T19:42:45.832Z,87.00
2019-06-26T19:45:15.127Z,87.00
2019-06-26T19:47:43.762Z,87.90
2019-06-26T19:50:13.282Z,87.70
2019-06-26T19:52:41.955Z,88.70
2019-06-26T19:55:11.508Z,90.20
2019-06-26T19:57:40.159Z,88.70
2019-06-26T20:00:12.354Z,88.50
2019-06-26T20:02:41.083Z,87.90
2019-06-26T20:05:29.045Z,87.00
2019-06-26T20:07:57.709Z,87.60
2019-06-26T20:10:26.415Z,87.90
2019-06-26T20:12:56.599Z,87.50
2019-06-26T20:15:25.145Z,86.60
2019-06-26T20:17:53.795Z,86.90
2019-06-26T20:20:22.443Z,87.60
2019-06-26T20:22:50.928Z,87.10
2019-06-26T20:25:20.058Z,85.80
2019-06-26T20:30:18.706Z,86.10
2019-06-26T20:32:47.404Z,86.80
2019-06-26T20:35:16.122Z,89.00
2019-06-26T20:37:44.779Z,88.50
2019-06-26T20:40:13.691Z,88.90
2019-06-26T20:42:42.423Z,88.40
2019-06-26T20:45:13.150Z,88.20
2019-06-26T20:47:41.699Z,88.20
2019-06-26T20:50:10.362Z,89.30
2019-06-26T20:52:38.996Z,89.30
2019-06-26T20:55:07.942Z,89.30
2019-06-26T20:57:36.605Z,90.50
2019-06-26T21:00:06.586Z,90.10
2019-06-26T21:02:35.131Z,90.10
2019-06-26T21:05:05.445Z,90.30
2019-06-26T21:07:34.086Z,90.40
2019-06-26T21:10:02.742Z,89.10
2019-06-26T21:12:31.299Z,88.60
2019-06-26T21:14:59.928Z,89.30
2019-06-26T21:17:28.631Z,90.00
2019-06-26T21:19:57.325Z,90.10
2019-06-26T21:22:25.940Z,90.80
2019-06-26T21:24:54.496Z,90.70
2019-06-26T21:27:23.175Z,90.70
2019-06-26T21:29:51.746Z,90.60
2019-06-26T21:32:20.388Z,90.10
2019-06-26T21:34:49.173Z,90.10
2019-06-26T21:37:17.718Z,90.40
2019-06-26T21:39:46.404Z,89.90
2019-06-26T21:42:15.554Z,89.40
2019-06-26T21:44:44.200Z,89.10
2019-06-26T21:47:12.792Z,88.00
2019-06-26T21:49:41.435Z,88.60
2019-06-26T21:52:10.017Z,87.90
2019-06-26T21:54:39.462Z,88.10
2019-06-26T21:57:09.338Z,86.50
2019-06-26T21:59:38.235Z,88.00
2019-06-26T22:02:07.036Z,86.80
2019-06-26T22:04:35.897Z,86.20
2019-06-26T22:07:04.540Z,85.90
2019-06-26T22:09:33.294Z,85.50
2019-06-26T22:12:02.008Z,87.00
2019-06-26T22:14:30.609Z,88.30
2019-06-26T22:16:59.242Z,89.10
2019-06-26T22:19:27.943Z,90.00
2019-06-26T22:21:56.514Z,89.70
2019-06-26T22:24:25.196Z,90.00
2019-06-26T22:26:53.925Z,88.60
2019-06-26T22:29:22.408Z,89.40
2019-06-26T22:31:51.089Z,88.50
2019-06-26T22:34:19.900Z,88.70
2019-06-26T22:36:51.941Z,87.80
2019-06-26T22:39:18.730Z,87.10
2019-06-26T22:41:47.499Z,87.10
2019-06-26T22:44:16.226Z,87.10
2019-06-26T22:46:44.841Z,86.50
2019-06-26T22:49:13.559Z,87.20
2019-06-26T22:51:42.345Z,86.70
2019-06-26T22:54:10.937Z,87.50
2019-06-26T22:56:39.525Z,85.90
2019-06-26T22:59:08.351Z,86.60
2019-06-26T23:01:36.902Z,87.50
2019-06-26T23:04:05.511Z,86.60
2019-06-26T23:06:37.373Z,87.20
2019-06-26T23:09:06.129Z,87.10
2019-06-26T23:11:34.797Z,87.60
2019-06-26T23:14:03.847Z,87.40
2019-06-26T23:16:32.403Z,87.90
2019-06-26T23:19:01.015Z,87.40
2019-06-26T23:21:29.526Z,87.60
2019-06-26T23:23:58.240Z,88.50
2019-06-26T23:26:26.773Z,89.30
2019-06-26T23:28:55.289Z,88.90
2019-06-26T23:31:23.998Z,89.10
2019-06-26T23:33:52.631Z,89.40
2019-06-26T23:36:21.590Z,88.00
2019-06-26T23:38:50.168Z,87.30
2019-06-26T23:41:18.833Z,88.30
2019-06-26T23:43:47.641Z,88.30
2019-06-26T23:46:16.308Z,88.60
2019-06-26T23:48:45.873Z,88.30
2019-06-26T23:51:14.568Z,88.10
2019-06-26T23:53:43.188Z,89.50
2019-06-26T23:56:11.758Z,90.10
2019-06-26T23:58:40.383Z,90.10
